(°C)
-1°
-1°
-1°
-1°
(°C)
-6°
-6°
-6°
-6°
-6°
-6°
-7°
СИ
СИ
СИ
СИ
СИ
СИ
СИ
(km/h)
17-28
17-29
16-32
16-32
17-30
17-29
17-29
(mm)
3
3
1.2
1
0.8
0.6
0
(%)
99
99
99
99
98
97
82

Издигане на слънцето

/ -14.3°
sun-icon
UV 0
07:26
16:36
Намаляваща полу-луна (201°)
16:47
09:40

METAR за 64.6°С 40.72°И (ULAA)

Час Условия Температура/
Точка на оросяване
Вятър Видимост Времето Облаци Налягане Промяна Сурови
LIFR 0°C / -1°C 60º variable 040º to 100º 6kt 1500m. Runway 08: Visual range is 2000m and decreasing. Showers Snow 3.00mm precipitation Vertical Visibility of 0ft. 978 No Significant change. Runway 08: Wet snow, 51-100% contamination with 4mm, friction coefficient 0.40. ULAA 221530Z 06003MPS 040V100 1500 R08/P2000D SHSN OVC003CB M00/M01 Q0978 R08/590440 NOSIG RMK QBB100 QFE733/0977
LIFR 0°C / 0°C 70º variable 040º to 110º 8kt 1900m. Runway 08: Visual range is 2000m and increasing. Showers Snow 3.00mm precipitation Vertical Visibility of 0ft. 978 No Significant change. Runway 08: Wet snow, 51-100% contamination with 4mm, friction coefficient 0.40. ULAA 221500Z 07004MPS 040V110 1900 R08/P2000U SHSN OVC003CB M00/M00 Q0978 R08/590440 NOSIG RMK QBB110 QFE732/0977
LIFR 0°C / 0°C 70º variable 040º to 110º 8kt 1400m. Runway 08: Visual range is 2000m and increasing. Showers Snow 3.00mm precipitation Vertical Visibility of 0ft. 978 No Significant change. Runway 08: Wet snow, 51-100% contamination with 4mm, friction coefficient 0.40. ULAA 221430Z 07004MPS 040V110 1400 R08/P2000U SHSN OVC003CB M00/M00 Q0978 R08/590440 NOSIG RMK QBB100 QFE732/0977
LIFR 0°C / 0°C 70º variable 040º to 190º 8kt 1800m. Runway 08: Visual range is 1800m. Showers Snow 3.00mm precipitation Vertical Visibility of 0ft. 977 No Significant change. Runway 08: Wet snow, 51-100% contamination with 3mm, friction coefficient 0.45. ULAA 221400Z 07004MPS 040V190 1800 R08/1800N SHSN OVC004CB 00/M00 Q0977 R08/590345 NOSIG RMK QBB120 QFE732/0976
LIFR 0°C / 0°C 70º variable 040º to 100º 8kt 2200m. Runway 08: Visual range is 2000m. Light Showers Snow Light Showers Rain 3.00mm precipitation Vertical Visibility of 0ft. 977 No Significant change. Runway 08: Wet or puddles, 51-100% contamination with <1mm, friction coefficient 0.60. ULAA 221330Z 07004MPS 040V100 2200 R08/2000N -SHSNRA OVC003CB 00/M00 Q0977 R08/290060 NOSIG RMK QBB110 QFE732/0976
LIFR 0°C / 0°C 70º variable 030º to 100º 8kt 2500m Light Showers Snow Light Showers Rain 3.00mm precipitation Vertical Visibility of 0ft. 976 No Significant change. Runway 08: Wet or puddles, 51-100% contamination with <1mm, friction coefficient 0.60. ULAA 221300Z 07004MPS 030V100 2500 -SHSNRA OVC004CB 00/M00 Q0976 R08/290060 NOSIG RMK QBB130 QFE731/0975
IFR 0°C / 0°C 70º variable 030º to 100º 8kt 9000m Light Showers Snow Light Showers Rain 3.00mm precipitation Vertical Visibility of 0ft. 976 No Significant change. Runway 08: Wet or puddles, 51-100% contamination with <1mm, friction coefficient 0.60. ULAA 221230Z 07004MPS 030V100 9000 -SHSNRA OVC008CB 00/M00 Q0976 R08/290060 NOSIG RMK QFE731/0975
IFR 1°C / 0°C 70º variable 040º to 100º 8kt >10km Light Showers Rain 3.00mm precipitation Vertical Visibility of 0ft. 976 No Significant change. Runway 08: Wet or puddles, 51-100% contamination with <1mm, friction coefficient 0.60. ULAA 221200Z 07004MPS 040V100 9999 -SHRA OVC009CB 01/M00 Q0976 R08/290060 NOSIG RMK QFE731/0975
IFR 1°C / 0°C 70º variable 040º to 100º 8kt >10km Light Showers Rain 3.00mm precipitation Vertical Visibility of 0ft. 976 No Significant change. Runway 08: Wet or puddles, 51-100% contamination with <1mm, friction coefficient 0.60. ULAA 221130Z 07004MPS 040V100 9999 -SHRA OVC007CB 01/00 Q0976 R08/290060 NOSIG RMK QFE731/0975
IFR 1°C / 0°C 70º variable 030º to 100º 8kt >10km Light Showers Rain 3.00mm precipitation Vertical Visibility of 0ft. 975 No Significant change. Runway 08: Wet or puddles, 51-100% contamination with <1mm, friction coefficient 0.60. ULAA 221100Z 07004MPS 030V100 9999 -SHRA OVC009CB 01/00 Q0975 R08/290060 NOSIG RMK QFE731/0974
IFR 1°C / 0°C 70º variable 030º to 110º 10kt >10km - Overcast 700ft 975 No Significant change. Runway 08: Wet or puddles, 51-100% contamination with <1mm, friction coefficient 0.60. ULAA 221030Z 07005MPS 030V110 9999 OVC007 01/00 Q0975 R08/290060 NOSIG RMK QFE730/0974
IFR 1°C / 0°C 80º variable 030º to 110º 10kt >10km - Overcast 900ft 975 No Significant change. Runway 08: Wet or puddles, 51-100% contamination with <1mm, friction coefficient 0.60. ULAA 221000Z 08005MPS 030V110 9999 OVC009 01/00 Q0975 R08/290060 NOSIG RMK QFE730/0974
IFR 1°C / 0°C 70º variable 030º to 110º 8kt >10km - Overcast 800ft 975 No Significant change. Runway 08: Wet or puddles, 51-100% contamination with <1mm, friction coefficient 0.60. ULAA 220930Z 07004MPS 030V110 9999 OVC008 01/00 Q0975 R08/290060 NOSIG RMK QFE730/0974
IFR 1°C / 0°C 70º variable 040º to 130º 10kt 9000m - Overcast 600ft 975 No Significant change. Runway 08: Wet or puddles, 51-100% contamination with <1mm, friction coefficient 0.60. ULAA 220900Z 07005MPS 040V130 9000 OVC006 01/00 Q0975 R08/290060 NOSIG RMK QBB190 QFE730/0974
IFR 0°C / 0°C 70º variable 030º to 100º 8kt 7000m - Overcast 600ft 975 No Significant change. Runway 08: Wet or puddles, 51-100% contamination with <1mm, friction coefficient 0.60. ULAA 220830Z 07004MPS 030V100 7000 OVC006 00/00 Q0975 R08/290060 NOSIG RMK QBB180 QFE730/0974
IFR 1°C / 0°C 70º variable 040º to 100º 10kt 2600m Light Drizzle Mist 0.20mm precipitation Vertical Visibility of 0ft. 975 No Significant change. Runway 08: Wet or puddles, 51-100% contamination with <1mm, friction coefficient 0.60. ULAA 220800Z 07005MPS 040V100 2600 -DZ BR OVC006 01/00 Q0975 R08/290060 NOSIG RMK QBB180 QFE730/0974
IFR 0°C / 0°C 70º variable 030º to 100º 10kt 5000m Mist Vertical Visibility of 0ft. 975 No Significant change. Runway 08: Wet or puddles, 51-100% contamination with <1mm, friction coefficient 0.60. ULAA 220730Z 07005MPS 030V100 5000 BR OVC005 00/00 Q0975 R08/290060 NOSIG RMK QBB150 QFE731/0974
LIFR 0°C / 0°C 80º variable 050º to 110º 10kt 4800m Light Drizzle Mist 0.20mm precipitation Vertical Visibility of 0ft. 975 No Significant change. Runway 08: Wet or puddles, 51-100% contamination with <1mm, friction coefficient 0.60. ULAA 220700Z 08005MPS 050V110 4800 -DZ BR OVC004 00/00 Q0975 R08/290060 NOSIG RMK QBB140 QFE731/0974
LIFR 1°C / 0°C 70º variable 040º to 110º 10kt 3200m Light Drizzle Mist 0.20mm precipitation Vertical Visibility of 0ft. 976 No Significant change. Runway 08: Wet or puddles, 51-100% contamination with <1mm, friction coefficient 0.60. ULAA 220630Z 07005MPS 040V110 3200 -DZ BR OVC004 01/00 Q0976 R08/290060 NOSIG RMK QBB140 QFE731/0974
LIFR 1°C / 0°C 70º variable 040º to 100º 10kt 9000m - Overcast 400ft 976 No Significant change. Runway 08: Wet or puddles, 51-100% contamination with <1mm, friction coefficient 0.60. ULAA 220600Z 07005MPS 040V100 9000 OVC004 01/00 Q0976 R08/290060 NOSIG RMK QBB140 QFE731/0975
LIFR 1°C / 0°C 80º variable 050º to 110º 8kt 7000m - Overcast 400ft 976 No Significant change. Runway 08: Wet or puddles, 51-100% contamination with <1mm, friction coefficient 0.60. ULAA 220530Z 08004MPS 050V110 7000 OVC004 01/00 Q0976 R08/290060 NOSIG RMK QBB130 QFE731/0975
LIFR 1°C / 0°C 70º variable 050º to 110º 8kt 6000m - Overcast 400ft 976 No Significant change. Runway 08: Wet or puddles, 51-100% contamination with <1mm, friction coefficient 0.60. ULAA 220500Z 07004MPS 050V110 6000 OVC004 01/00 Q0976 R08/290060 NOSIG RMK QBB120 QFE731/0975
LIFR 1°C / 0°C 70º 8kt 4000m Mist Vertical Visibility of 0ft. 976 No Significant change. Runway 08: Wet or puddles, 51-100% contamination with <1mm, friction coefficient 0.60. ULAA 220430Z 07004MPS 4000 BR OVC003 01/00 Q0976 R08/290060 NOSIG RMK QBB100 QFE731/0975
LIFR 1°C / 0°C 80º variable 050º to 110º 8kt 2400m Mist Vertical Visibility of 0ft. 976 No Significant change. Runway 08: Wet or puddles, 51-100% contamination with <1mm, friction coefficient 0.60. ULAA 220400Z 08004MPS 050V110 2400 BR OVC003 01/00 Q0976 R08/290060 NOSIG RMK QBB090 QFE731/0975

LIFR

0°C / -1°C

[Още]
Вятър 60º variable 040º to 100º 6kt
Видимост 1500m. Runway 08: Visual range is 2000m and decreasing.
Времето Showers Snow 3.00mm precipitation
Облаци Vertical Visibility of 0ft.
Налягане 978
Промяна No Significant change. Runway 08: Wet snow, 51-100% contamination with 4mm, friction coefficient 0.40.
Сурови ULAA 221530Z 06003MPS 040V100 1500 R08/P2000D SHSN OVC003CB M00/M01 Q0978 R08/590440 NOSIG RMK QBB100 QFE733/0977

LIFR

0°C / 0°C

[Още]
Вятър 70º variable 040º to 110º 8kt
Видимост 1900m. Runway 08: Visual range is 2000m and increasing.
Времето Showers Snow 3.00mm precipitation
Облаци Vertical Visibility of 0ft.
Налягане 978
Промяна No Significant change. Runway 08: Wet snow, 51-100% contamination with 4mm, friction coefficient 0.40.
Сурови ULAA 221500Z 07004MPS 040V110 1900 R08/P2000U SHSN OVC003CB M00/M00 Q0978 R08/590440 NOSIG RMK QBB110 QFE732/0977

LIFR

0°C / 0°C

[Още]
Вятър 70º variable 040º to 110º 8kt
Видимост 1400m. Runway 08: Visual range is 2000m and increasing.
Времето Showers Snow 3.00mm precipitation
Облаци Vertical Visibility of 0ft.
Налягане 978
Промяна No Significant change. Runway 08: Wet snow, 51-100% contamination with 4mm, friction coefficient 0.40.
Сурови ULAA 221430Z 07004MPS 040V110 1400 R08/P2000U SHSN OVC003CB M00/M00 Q0978 R08/590440 NOSIG RMK QBB100 QFE732/0977

LIFR

0°C / 0°C

[Още]
Вятър 70º variable 040º to 190º 8kt
Видимост 1800m. Runway 08: Visual range is 1800m.
Времето Showers Snow 3.00mm precipitation
Облаци Vertical Visibility of 0ft.
Налягане 977
Промяна No Significant change. Runway 08: Wet snow, 51-100% contamination with 3mm, friction coefficient 0.45.
Сурови ULAA 221400Z 07004MPS 040V190 1800 R08/1800N SHSN OVC004CB 00/M00 Q0977 R08/590345 NOSIG RMK QBB120 QFE732/0976

LIFR

0°C / 0°C

[Още]
Вятър 70º variable 040º to 100º 8kt
Видимост 2200m. Runway 08: Visual range is 2000m.
Времето Light Showers Snow Light Showers Rain 3.00mm precipitation
Облаци Vertical Visibility of 0ft.
Налягане 977
Промяна No Significant change. Runway 08: Wet or puddles, 51-100% contamination with <1mm, friction coefficient 0.60.
Сурови ULAA 221330Z 07004MPS 040V100 2200 R08/2000N -SHSNRA OVC003CB 00/M00 Q0977 R08/290060 NOSIG RMK QBB110 QFE732/0976

LIFR

0°C / 0°C

[Още]
Вятър 70º variable 030º to 100º 8kt
Видимост 2500m
Времето Light Showers Snow Light Showers Rain 3.00mm precipitation
Облаци Vertical Visibility of 0ft.
Налягане 976
Промяна No Significant change. Runway 08: Wet or puddles, 51-100% contamination with <1mm, friction coefficient 0.60.
Сурови ULAA 221300Z 07004MPS 030V100 2500 -SHSNRA OVC004CB 00/M00 Q0976 R08/290060 NOSIG RMK QBB130 QFE731/0975

IFR

0°C / 0°C

[Още]
Вятър 70º variable 030º to 100º 8kt
Видимост 9000m
Времето Light Showers Snow Light Showers Rain 3.00mm precipitation
Облаци Vertical Visibility of 0ft.
Налягане 976
Промяна No Significant change. Runway 08: Wet or puddles, 51-100% contamination with <1mm, friction coefficient 0.60.
Сурови ULAA 221230Z 07004MPS 030V100 9000 -SHSNRA OVC008CB 00/M00 Q0976 R08/290060 NOSIG RMK QFE731/0975

IFR

1°C / 0°C

[Още]
Вятър 70º variable 040º to 100º 8kt
Видимост >10km
Времето Light Showers Rain 3.00mm precipitation
Облаци Vertical Visibility of 0ft.
Налягане 976
Промяна No Significant change. Runway 08: Wet or puddles, 51-100% contamination with <1mm, friction coefficient 0.60.
Сурови ULAA 221200Z 07004MPS 040V100 9999 -SHRA OVC009CB 01/M00 Q0976 R08/290060 NOSIG RMK QFE731/0975

IFR

1°C / 0°C

[Още]
Вятър 70º variable 040º to 100º 8kt
Видимост >10km
Времето Light Showers Rain 3.00mm precipitation
Облаци Vertical Visibility of 0ft.
Налягане 976
Промяна No Significant change. Runway 08: Wet or puddles, 51-100% contamination with <1mm, friction coefficient 0.60.
Сурови ULAA 221130Z 07004MPS 040V100 9999 -SHRA OVC007CB 01/00 Q0976 R08/290060 NOSIG RMK QFE731/0975

IFR

1°C / 0°C

[Още]
Вятър 70º variable 030º to 100º 8kt
Видимост >10km
Времето Light Showers Rain 3.00mm precipitation
Облаци Vertical Visibility of 0ft.
Налягане 975
Промяна No Significant change. Runway 08: Wet or puddles, 51-100% contamination with <1mm, friction coefficient 0.60.
Сурови ULAA 221100Z 07004MPS 030V100 9999 -SHRA OVC009CB 01/00 Q0975 R08/290060 NOSIG RMK QFE731/0974

IFR

1°C / 0°C

[Още]
Вятър 70º variable 030º to 110º 10kt
Видимост >10km
Времето -
Облаци Overcast 700ft
Налягане 975
Промяна No Significant change. Runway 08: Wet or puddles, 51-100% contamination with <1mm, friction coefficient 0.60.
Сурови ULAA 221030Z 07005MPS 030V110 9999 OVC007 01/00 Q0975 R08/290060 NOSIG RMK QFE730/0974

IFR

1°C / 0°C

[Още]
Вятър 80º variable 030º to 110º 10kt
Видимост >10km
Времето -
Облаци Overcast 900ft
Налягане 975
Промяна No Significant change. Runway 08: Wet or puddles, 51-100% contamination with <1mm, friction coefficient 0.60.
Сурови ULAA 221000Z 08005MPS 030V110 9999 OVC009 01/00 Q0975 R08/290060 NOSIG RMK QFE730/0974

IFR

1°C / 0°C

[Още]
Вятър 70º variable 030º to 110º 8kt
Видимост >10km
Времето -
Облаци Overcast 800ft
Налягане 975
Промяна No Significant change. Runway 08: Wet or puddles, 51-100% contamination with <1mm, friction coefficient 0.60.
Сурови ULAA 220930Z 07004MPS 030V110 9999 OVC008 01/00 Q0975 R08/290060 NOSIG RMK QFE730/0974

IFR

1°C / 0°C

[Още]
Вятър 70º variable 040º to 130º 10kt
Видимост 9000m
Времето -
Облаци Overcast 600ft
Налягане 975
Промяна No Significant change. Runway 08: Wet or puddles, 51-100% contamination with <1mm, friction coefficient 0.60.
Сурови ULAA 220900Z 07005MPS 040V130 9000 OVC006 01/00 Q0975 R08/290060 NOSIG RMK QBB190 QFE730/0974

IFR

0°C / 0°C

[Още]
Вятър 70º variable 030º to 100º 8kt
Видимост 7000m
Времето -
Облаци Overcast 600ft
Налягане 975
Промяна No Significant change. Runway 08: Wet or puddles, 51-100% contamination with <1mm, friction coefficient 0.60.
Сурови ULAA 220830Z 07004MPS 030V100 7000 OVC006 00/00 Q0975 R08/290060 NOSIG RMK QBB180 QFE730/0974

IFR

1°C / 0°C

[Още]
Вятър 70º variable 040º to 100º 10kt
Видимост 2600m
Времето Light Drizzle Mist 0.20mm precipitation
Облаци Vertical Visibility of 0ft.
Налягане 975
Промяна No Significant change. Runway 08: Wet or puddles, 51-100% contamination with <1mm, friction coefficient 0.60.
Сурови ULAA 220800Z 07005MPS 040V100 2600 -DZ BR OVC006 01/00 Q0975 R08/290060 NOSIG RMK QBB180 QFE730/0974

IFR

0°C / 0°C

[Още]
Вятър 70º variable 030º to 100º 10kt
Видимост 5000m
Времето Mist
Облаци Vertical Visibility of 0ft.
Налягане 975
Промяна No Significant change. Runway 08: Wet or puddles, 51-100% contamination with <1mm, friction coefficient 0.60.
Сурови ULAA 220730Z 07005MPS 030V100 5000 BR OVC005 00/00 Q0975 R08/290060 NOSIG RMK QBB150 QFE731/0974

LIFR

0°C / 0°C

[Още]
Вятър 80º variable 050º to 110º 10kt
Видимост 4800m
Времето Light Drizzle Mist 0.20mm precipitation
Облаци Vertical Visibility of 0ft.
Налягане 975
Промяна No Significant change. Runway 08: Wet or puddles, 51-100% contamination with <1mm, friction coefficient 0.60.
Сурови ULAA 220700Z 08005MPS 050V110 4800 -DZ BR OVC004 00/00 Q0975 R08/290060 NOSIG RMK QBB140 QFE731/0974

LIFR

1°C / 0°C

[Още]
Вятър 70º variable 040º to 110º 10kt
Видимост 3200m
Времето Light Drizzle Mist 0.20mm precipitation
Облаци Vertical Visibility of 0ft.
Налягане 976
Промяна No Significant change. Runway 08: Wet or puddles, 51-100% contamination with <1mm, friction coefficient 0.60.
Сурови ULAA 220630Z 07005MPS 040V110 3200 -DZ BR OVC004 01/00 Q0976 R08/290060 NOSIG RMK QBB140 QFE731/0974

LIFR

1°C / 0°C

[Още]
Вятър 70º variable 040º to 100º 10kt
Видимост 9000m
Времето -
Облаци Overcast 400ft
Налягане 976
Промяна No Significant change. Runway 08: Wet or puddles, 51-100% contamination with <1mm, friction coefficient 0.60.
Сурови ULAA 220600Z 07005MPS 040V100 9000 OVC004 01/00 Q0976 R08/290060 NOSIG RMK QBB140 QFE731/0975

LIFR

1°C / 0°C

[Още]
Вятър 80º variable 050º to 110º 8kt
Видимост 7000m
Времето -
Облаци Overcast 400ft
Налягане 976
Промяна No Significant change. Runway 08: Wet or puddles, 51-100% contamination with <1mm, friction coefficient 0.60.
Сурови ULAA 220530Z 08004MPS 050V110 7000 OVC004 01/00 Q0976 R08/290060 NOSIG RMK QBB130 QFE731/0975

LIFR

1°C / 0°C

[Още]
Вятър 70º variable 050º to 110º 8kt
Видимост 6000m
Времето -
Облаци Overcast 400ft
Налягане 976
Промяна No Significant change. Runway 08: Wet or puddles, 51-100% contamination with <1mm, friction coefficient 0.60.
Сурови ULAA 220500Z 07004MPS 050V110 6000 OVC004 01/00 Q0976 R08/290060 NOSIG RMK QBB120 QFE731/0975

LIFR

1°C / 0°C

[Още]
Вятър 70º 8kt
Видимост 4000m
Времето Mist
Облаци Vertical Visibility of 0ft.
Налягане 976
Промяна No Significant change. Runway 08: Wet or puddles, 51-100% contamination with <1mm, friction coefficient 0.60.
Сурови ULAA 220430Z 07004MPS 4000 BR OVC003 01/00 Q0976 R08/290060 NOSIG RMK QBB100 QFE731/0975

LIFR

1°C / 0°C

[Още]
Вятър 80º variable 050º to 110º 8kt
Видимост 2400m
Времето Mist
Облаци Vertical Visibility of 0ft.
Налягане 976
Промяна No Significant change. Runway 08: Wet or puddles, 51-100% contamination with <1mm, friction coefficient 0.60.
Сурови ULAA 220400Z 08004MPS 050V110 2400 BR OVC003 01/00 Q0976 R08/290060 NOSIG RMK QBB090 QFE731/0975

TAF за 64.6°С 40.72°И (ULAA)

From till


From till Wind 50º 6kt. Gust 16kt. Visibility 2100m. Light Showers Snow Mist . Broken Clouds 400ft. Broken Clouds 1100ft.
Temporarly from till Wind 20º 8kt. Gust 23kt. Visibility 498.895m. Heavy Showers Snow . Broken Clouds 200ft. Broken Clouds 1000ft.
Temporarly from till Wind 30º 6kt. Visibility 305.775m. Light Showers Snow freezing Fog . Broken Clouds 200ft. Broken Clouds 1000ft.
From till Wind 20º 6kt. Visibility 6000m. Broken Clouds 1300ft.

Сурови: TAF ULAA 2215/2315 05003G08MPS 2100 -SHSN BR BKN004 BKN011CB TEMPO 2215/2224 02004G12MPS 0500 +SHSN BKN002 BKN010CB FM230000 02003MPS 6000 BKN013 TEMPO 2300/2306 03003MPS 0300 -SHSN FZFG BKN002 BKN010CB

Актуални сателитни и дъждовни снимки за 64.6°С 40.72°И

Маркерът за локация е поставен върху 64.6°С 40.72°И. [Още]

Сателитното изображение в реално време съчетава видимата светлина през деня с инфрачервеното лъчение през нощта. През нощта изображението не е тъмно, тъй като инфрачервеното лъчение може да открива температурни разлики. За съжаление ниските облаци и мъглата са трудни за разграничаване от температурите на земята и затова могат да бъдат почти невидими през нощта. Сателитните изображения на Meteosat за Европа се актуализират в реално време на всеки 5 минути. Изображенията GOES-16/GOES-17 (Северна и Южна Америка) и Химавари (Азия) се актуализират на всеки 10 минути.

Всички права запазени 2021 EUMETSAT / meteoblue. / Всички права запазени 2021 meteoblue

Радар и валежи в момента за 64.6°С 40.72°И

Ситен дъжд
Лек
Умерен
Тежък
Много тежък
Аве

Маркерът за локация обозначава 64.6°С 40.72°И. Анимацията показва Радара за валежи за последния час, както и прогноза за 1h. Дъждът или лекият сняг може да са невидими за радара. Интензивността на валежите е обозначена с цветни кодове, вариращи от светлосиньо до оранжево.